createdAt,value
2019-04-30T00:00:25.783Z,0.00
2019-04-30T00:01:25.118Z,0.00
2019-04-30T00:02:27.808Z,0.00
2019-04-30T00:03:25.058Z,0.00
2019-04-30T00:04:25.375Z,0.00
2019-04-30T00:05:25.096Z,0.00
2019-04-30T00:06:27.395Z,0.00
2019-04-30T00:07:24.850Z,0.00
2019-04-30T00:08:25.589Z,0.00
2019-04-30T00:09:25.058Z,0.00
2019-04-30T00:10:29.553Z,0.00
2019-04-30T00:11:25.101Z,0.00
2019-04-30T00:12:23.366Z,0.00
2019-04-30T00:13:23.337Z,0.00
2019-04-30T00:14:25.037Z,0.00
2019-04-30T00:15:23.196Z,0.00
2019-04-30T00:16:25.157Z,0.00
2019-04-30T00:17:23.122Z,0.00
2019-04-30T00:18:23.031Z,0.00
2019-04-30T00:19:22.976Z,0.00
2019-04-30T00:20:22.969Z,0.00
2019-04-30T00:21:24.890Z,0.00
2019-04-30T00:22:33.085Z,0.00
2019-04-30T00:23:29.314Z,0.00
2019-04-30T00:24:22.706Z,0.00
2019-04-30T00:25:26.924Z,0.00
2019-04-30T00:26:22.600Z,0.00
2019-04-30T00:27:26.419Z,0.00
2019-04-30T00:28:22.486Z,0.00
2019-04-30T00:29:26.675Z,0.00
2019-04-30T00:30:22.412Z,0.00
2019-04-30T00:31:23.777Z,0.00
2019-04-30T00:32:22.272Z,0.00
2019-04-30T00:33:25.081Z,0.00
2019-04-30T00:34:22.165Z,0.00
2019-04-30T00:35:22.133Z,0.00
2019-04-30T00:36:22.057Z,0.00
2019-04-30T00:37:22.000Z,0.00
2019-04-30T00:38:21.945Z,0.00
2019-04-30T00:39:21.891Z,0.00
2019-04-30T00:40:26.012Z,0.00
2019-04-30T00:41:21.813Z,0.00
2019-04-30T00:42:24.198Z,0.00
2019-04-30T00:43:21.676Z,0.00
2019-04-30T00:44:24.896Z,0.00
2019-04-30T00:45:21.613Z,0.00
2019-04-30T00:46:25.515Z,0.00
2019-04-30T00:47:21.465Z,0.00
2019-04-30T00:48:27.856Z,0.00
2019-04-30T00:49:23.140Z,0.00
2019-04-30T00:50:21.327Z,0.00
2019-04-30T00:51:21.599Z,0.00
2019-04-30T00:52:21.189Z,0.00
2019-04-30T00:53:21.133Z,0.00
2019-04-30T00:54:22.404Z,0.00
2019-04-30T00:55:21.025Z,0.00
2019-04-30T00:56:24.763Z,0.00
2019-04-30T00:57:20.922Z,0.00
2019-04-30T00:58:25.850Z,0.00
2019-04-30T00:59:20.808Z,0.00
2019-04-30T01:00:28.062Z,0.00
2019-04-30T01:01:20.732Z,0.00
2019-04-30T01:02:29.098Z,0.00
2019-04-30T01:03:20.589Z,0.00
2019-04-30T01:04:24.692Z,0.00
2019-04-30T01:05:20.485Z,0.00
2019-04-30T01:06:26.776Z,0.00
2019-04-30T01:07:20.409Z,0.00
2019-04-30T01:08:21.180Z,0.00
2019-04-30T01:09:20.264Z,0.00
2019-04-30T01:10:24.839Z,0.00
2019-04-30T01:11:20.155Z,0.00
2019-04-30T01:12:27.791Z,0.00
2019-04-30T01:13:20.080Z,0.00
2019-04-30T01:14:23.261Z,0.00
2019-04-30T01:15:19.941Z,0.00
2019-04-30T01:16:23.567Z,0.00
2019-04-30T01:17:19.834Z,0.00
2019-04-30T01:18:23.542Z,0.00
2019-04-30T01:19:29.747Z,0.00
2019-04-30T01:20:19.672Z,0.00
2019-04-30T01:21:19.613Z,0.00
2019-04-30T01:22:27.857Z,0.00
2019-04-30T01:23:19.609Z,0.00
2019-04-30T01:24:23.419Z,0.00
2019-04-30T01:25:20.712Z,0.00
2019-04-30T01:26:22.855Z,0.00
2019-04-30T01:27:19.322Z,0.00
2019-04-30T01:28:22.888Z,0.00
2019-04-30T01:29:19.375Z,0.00
2019-04-30T01:30:22.766Z,0.00
2019-04-30T01:31:21.063Z,0.00
2019-04-30T01:32:20.901Z,0.00
2019-04-30T01:33:19.216Z,0.00
2019-04-30T01:34:19.575Z,0.00
2019-04-30T01:35:19.239Z,0.00
2019-04-30T01:36:19.312Z,0.00
2019-04-30T01:37:24.633Z,0.00
2019-04-30T01:38:18.993Z,0.00
2019-04-30T01:39:19.561Z,0.00
2019-04-30T01:40:19.044Z,0.00
2019-04-30T01:41:20.282Z,0.00
2019-04-30T01:42:18.598Z,0.00
2019-04-30T01:43:23.142Z,0.00
2019-04-30T01:44:19.539Z,0.00
2019-04-30T01:45:18.745Z,0.00
2019-04-30T01:46:19.238Z,0.00
2019-04-30T01:47:21.454Z,0.00
2019-04-30T01:48:19.384Z,0.00
2019-04-30T01:49:19.981Z,0.00
2019-04-30T01:50:19.400Z,0.00
2019-04-30T01:51:21.692Z,0.00
2019-04-30T01:52:19.396Z,0.00
2019-04-30T01:53:18.645Z,0.00
2019-04-30T01:54:23.893Z,0.00
2019-04-30T01:55:19.622Z,0.00
2019-04-30T01:56:19.167Z,0.00
2019-04-30T01:57:19.267Z,0.00
2019-04-30T01:58:19.310Z,0.00
2019-04-30T01:59:19.041Z,0.00
2019-04-30T02:00:19.444Z,0.00
2019-04-30T02:01:19.005Z,0.00
2019-04-30T02:02:18.535Z,0.00
2019-04-30T02:03:19.200Z,0.00
2019-04-30T02:04:17.281Z,0.00
2019-04-30T02:05:18.875Z,0.00
2019-04-30T02:06:17.211Z,0.00
2019-04-30T02:07:18.976Z,0.00
2019-04-30T02:08:17.064Z,0.00
2019-04-30T02:09:18.887Z,0.00
2019-04-30T02:10:18.646Z,0.00
2019-04-30T02:11:18.824Z,0.00
2019-04-30T02:12:16.846Z,0.00
2019-04-30T02:13:18.774Z,0.00
2019-04-30T02:14:16.735Z,0.00
2019-04-30T02:15:16.696Z,0.00
2019-04-30T02:16:18.700Z,0.00
2019-04-30T02:17:16.576Z,0.00
2019-04-30T02:18:16.519Z,0.00
2019-04-30T02:19:16.497Z,0.00
2019-04-30T02:20:16.408Z,0.00
2019-04-30T02:21:16.356Z,0.00
2019-04-30T02:22:16.302Z,0.00
2019-04-30T02:23:16.279Z,0.00
2019-04-30T02:24:16.190Z,0.00
2019-04-30T02:25:16.138Z,0.00
2019-04-30T02:26:16.091Z,0.00
2019-04-30T02:27:16.033Z,0.00
2019-04-30T02:28:16.009Z,0.00
2019-04-30T02:29:15.919Z,0.00
2019-04-30T02:30:15.888Z,0.00
2019-04-30T02:31:15.821Z,0.00
2019-04-30T02:32:15.782Z,0.00
2019-04-30T02:33:15.701Z,0.00
2019-04-30T02:34:15.648Z,0.00
2019-04-30T02:35:15.596Z,0.00
2019-04-30T02:36:15.543Z,0.00
2019-04-30T02:37:15.522Z,0.00
2019-04-30T02:38:15.434Z,0.00
2019-04-30T02:39:15.421Z,0.00
2019-04-30T02:40:15.321Z,0.00
2019-04-30T02:41:15.267Z,0.00
2019-04-30T02:42:15.212Z,0.00
2019-04-30T02:43:15.157Z,0.00
2019-04-30T02:44:15.137Z,0.00
2019-04-30T02:45:15.048Z,0.00
2019-04-30T02:46:14.995Z,0.00
2019-04-30T02:47:14.963Z,0.00
2019-04-30T02:48:14.883Z,0.00
2019-04-30T02:49:14.827Z,0.00
2019-04-30T02:50:18.638Z,0.00
2019-04-30T02:51:14.718Z,0.00
2019-04-30T02:52:14.668Z,0.00
2019-04-30T02:53:14.610Z,0.00
2019-04-30T02:54:14.596Z,0.00
2019-04-30T02:55:14.501Z,0.00
2019-04-30T02:56:14.449Z,0.00
2019-04-30T02:57:14.401Z,0.00
2019-04-30T02:58:14.339Z,0.00
2019-04-30T02:59:14.323Z,0.00
2019-04-30T03:00:14.236Z,0.00
2019-04-30T03:01:14.170Z,0.00
2019-04-30T03:02:14.119Z,0.00
2019-04-30T03:03:14.064Z,0.00
2019-04-30T03:04:14.044Z,0.00
2019-04-30T03:05:14.106Z,0.00
2019-04-30T03:06:13.901Z,0.00
2019-04-30T03:07:13.846Z,0.00
2019-04-30T03:08:13.831Z,0.00
2019-04-30T03:09:13.737Z,0.00
2019-04-30T03:10:13.683Z,0.00
2019-04-30T03:11:13.626Z,0.00
2019-04-30T03:12:13.570Z,0.00
2019-04-30T03:13:13.549Z,0.00
2019-04-30T03:14:13.463Z,0.00
2019-04-30T03:15:13.409Z,0.00
2019-04-30T03:16:13.356Z,0.00
2019-04-30T03:17:13.324Z,0.00
2019-04-30T03:18:13.246Z,0.00
2019-04-30T03:19:13.195Z,0.00
2019-04-30T03:20:27.714Z,0.00
2019-04-30T03:21:13.092Z,0.00
2019-04-30T03:22:13.026Z,0.00
2019-04-30T03:23:12.979Z,0.00
2019-04-30T03:24:12.926Z,0.00
2019-04-30T03:25:12.890Z,0.00
2019-04-30T03:26:13.087Z,0.00
2019-04-30T03:27:12.784Z,0.00
2019-04-30T03:28:12.699Z,0.00
2019-04-30T03:29:12.639Z,0.00
2019-04-30T03:30:12.657Z,0.00
2019-04-30T03:31:12.805Z,0.00
2019-04-30T03:32:14.148Z,0.00
2019-04-30T03:33:13.309Z,0.00
2019-04-30T03:34:19.564Z,0.00
2019-04-30T03:35:13.276Z,4.00
2019-04-30T03:36:13.045Z,0.00
2019-04-30T03:37:12.237Z,0.00
2019-04-30T03:38:12.148Z,4.00
2019-04-30T03:39:12.093Z,0.00
2019-04-30T03:40:13.181Z,0.00
2019-04-30T03:41:11.982Z,4.00
2019-04-30T03:42:11.961Z,4.00
2019-04-30T03:43:11.910Z,4.00
2019-04-30T03:44:21.427Z,4.00
2019-04-30T03:45:11.763Z,4.00
2019-04-30T03:46:11.707Z,8.00
2019-04-30T03:47:11.671Z,12.00
2019-04-30T03:48:11.641Z,12.00
2019-04-30T03:49:13.445Z,20.00
2019-04-30T03:50:11.487Z,24.00
2019-04-30T03:51:11.437Z,24.00
2019-04-30T03:52:13.398Z,28.00
2019-04-30T03:53:11.363Z,28.00
2019-04-30T03:54:11.301Z,28.00
2019-04-30T03:55:11.214Z,24.00
2019-04-30T03:56:11.157Z,28.00
2019-04-30T03:57:11.116Z,24.00
2019-04-30T03:58:11.091Z,28.00
2019-04-30T03:59:11.047Z,32.00
2019-04-30T04:00:10.937Z,40.00
2019-04-30T04:01:10.882Z,48.00
2019-04-30T04:02:12.747Z,52.00
2019-04-30T04:03:10.816Z,60.00
2019-04-30T04:04:10.718Z,64.00
2019-04-30T04:05:10.663Z,72.00
2019-04-30T04:06:10.611Z,84.00
2019-04-30T04:07:10.553Z,100.00
2019-04-30T04:08:10.525Z,112.00
2019-04-30T04:09:10.492Z,124.00
2019-04-30T04:10:10.385Z,132.00
2019-04-30T04:11:10.332Z,148.00
2019-04-30T04:12:12.068Z,160.00
2019-04-30T04:13:10.474Z,160.00
2019-04-30T04:14:10.165Z,160.00
2019-04-30T04:15:10.634Z,164.00
2019-04-30T04:16:10.050Z,180.00
2019-04-30T04:17:10.002Z,200.00
2019-04-30T04:18:10.708Z,224.00
2019-04-30T04:19:09.931Z,220.00
2019-04-30T04:20:10.656Z,232.00
2019-04-30T04:21:16.511Z,252.00
2019-04-30T04:22:12.240Z,276.00
2019-04-30T04:23:09.822Z,288.00
2019-04-30T04:24:10.595Z,296.00
2019-04-30T04:25:13.066Z,300.00
2019-04-30T04:26:09.659Z,268.00
2019-04-30T04:27:09.743Z,240.00
2019-04-30T04:28:10.107Z,232.00
2019-04-30T04:29:12.261Z,284.00
2019-04-30T04:30:10.620Z,280.00
2019-04-30T04:31:09.610Z,272.00
2019-04-30T04:32:10.660Z,328.00
2019-04-30T04:33:10.243Z,360.00
2019-04-30T04:34:09.412Z,380.00
2019-04-30T04:35:12.221Z,420.00
2019-04-30T04:36:09.243Z,444.00
2019-04-30T04:37:10.045Z,496.00
2019-04-30T04:38:12.276Z,532.00
2019-04-30T04:39:09.800Z,592.00
2019-04-30T04:40:09.401Z,612.00
2019-04-30T04:41:10.369Z,624.00
2019-04-30T04:42:10.138Z,628.00
2019-04-30T04:43:10.356Z,620.00
2019-04-30T04:44:12.610Z,644.00
2019-04-30T04:45:09.955Z,724.00
2019-04-30T04:46:09.287Z,712.00
2019-04-30T04:47:09.887Z,752.00
2019-04-30T04:48:09.536Z,752.00
2019-04-30T04:49:08.998Z,752.00
2019-04-30T04:50:10.294Z,756.00
2019-04-30T04:51:19.831Z,752.00
2019-04-30T04:52:10.192Z,756.00
2019-04-30T04:53:11.259Z,780.00
2019-04-30T04:54:10.341Z,900.00
2019-04-30T04:55:10.052Z,996.00
2019-04-30T04:56:09.887Z,872.00
2019-04-30T04:57:14.824Z,828.00
2019-04-30T04:58:09.686Z,884.00
2019-04-30T04:59:10.075Z,768.00
2019-04-30T05:00:10.438Z,784.00
2019-04-30T05:01:09.057Z,784.00
2019-04-30T05:02:09.492Z,652.00
2019-04-30T05:03:09.344Z,552.00
2019-04-30T05:04:11.481Z,552.00
2019-04-30T05:05:09.481Z,600.00
2019-04-30T05:06:11.369Z,548.00
2019-04-30T05:07:09.065Z,492.00
2019-04-30T05:08:08.883Z,500.00
2019-04-30T05:09:07.115Z,532.00
2019-04-30T05:10:09.040Z,624.00
2019-04-30T05:11:07.055Z,616.00
2019-04-30T05:12:08.523Z,608.00
2019-04-30T05:13:06.894Z,796.00
2019-04-30T05:14:08.376Z,848.00
2019-04-30T05:15:06.789Z,724.00
2019-04-30T05:16:06.777Z,692.00
2019-04-30T05:17:06.675Z,724.00
2019-04-30T05:18:06.618Z,696.00
2019-04-30T05:19:08.571Z,800.00
2019-04-30T05:20:06.507Z,1000.00
2019-04-30T05:21:06.491Z,1056.00
2019-04-30T05:22:06.396Z,1068.00
2019-04-30T05:23:06.347Z,1024.00
2019-04-30T05:24:06.290Z,1128.00
2019-04-30T05:25:06.236Z,1104.00
2019-04-30T05:26:06.207Z,1036.00
2019-04-30T05:27:06.123Z,1288.00
2019-04-30T05:28:06.073Z,1572.00
2019-04-30T05:29:06.043Z,1904.00
2019-04-30T05:30:05.955Z,1644.00
2019-04-30T05:31:05.925Z,1212.00
2019-04-30T05:32:05.843Z,1320.00
2019-04-30T05:33:05.792Z,1216.00
2019-04-30T05:34:06.430Z,1388.00
2019-04-30T05:35:05.725Z,1332.00
2019-04-30T05:36:05.623Z,1256.00
2019-04-30T05:37:05.568Z,1188.00
2019-04-30T05:38:05.516Z,1380.00
2019-04-30T05:39:05.460Z,1240.00
2019-04-30T05:40:05.438Z,1332.00
2019-04-30T05:41:05.349Z,1452.00
2019-04-30T05:42:05.292Z,1520.00
2019-04-30T05:43:05.240Z,2036.00
2019-04-30T05:44:05.217Z,2196.00
2019-04-30T05:45:05.130Z,2492.00
2019-04-30T05:46:05.074Z,2716.00
2019-04-30T05:47:05.021Z,2408.00
2019-04-30T05:48:04.963Z,2156.00
2019-04-30T05:49:04.940Z,2220.00
2019-04-30T05:50:04.865Z,2188.00
2019-04-30T05:51:04.800Z,1996.00
2019-04-30T05:52:04.745Z,1724.00
2019-04-30T05:53:04.691Z,1648.00
2019-04-30T05:54:04.670Z,1816.00
2019-04-30T05:55:04.583Z,1812.00
2019-04-30T05:56:04.560Z,1696.00
2019-04-30T05:57:04.472Z,1448.00
2019-04-30T05:58:04.417Z,1412.00
2019-04-30T05:59:04.368Z,1432.00
2019-04-30T06:00:04.349Z,1420.00
2019-04-30T06:01:04.256Z,1380.00
2019-04-30T06:02:04.199Z,1340.00
2019-04-30T06:03:04.143Z,1160.00
2019-04-30T06:04:04.088Z,1104.00
2019-04-30T06:05:04.097Z,1176.00
2019-04-30T06:06:03.980Z,1200.00
2019-04-30T06:07:03.926Z,1372.00
2019-04-30T06:08:03.875Z,1348.00
2019-04-30T06:09:06.689Z,1580.00
2019-04-30T06:10:03.791Z,1952.00
2019-04-30T06:11:03.710Z,1924.00
2019-04-30T06:12:03.649Z,1816.00
2019-04-30T06:13:03.597Z,2092.00
2019-04-30T06:14:03.578Z,2308.00
2019-04-30T06:15:03.488Z,2220.00
2019-04-30T06:16:03.470Z,2656.00
2019-04-30T06:17:03.386Z,3128.00
2019-04-30T06:18:11.514Z,2892.00
2019-04-30T06:19:03.268Z,2736.00
2019-04-30T06:20:03.211Z,2248.00
2019-04-30T06:21:03.162Z,2560.00
2019-04-30T06:22:07.501Z,2804.00
2019-04-30T06:23:03.052Z,2996.00
2019-04-30T06:24:02.997Z,3432.00
2019-04-30T06:25:02.948Z,3292.00
2019-04-30T06:26:09.618Z,3116.00
2019-04-30T06:27:02.865Z,3296.00
2019-04-30T06:28:02.820Z,3612.00
2019-04-30T06:29:02.726Z,3636.00
2019-04-30T06:30:02.669Z,3572.00
2019-04-30T06:31:02.617Z,3496.00
2019-04-30T06:32:02.559Z,3596.00
2019-04-30T06:33:02.544Z,3808.00
2019-04-30T06:34:02.455Z,3852.00
2019-04-30T06:35:02.397Z,4348.00
2019-04-30T06:36:02.348Z,5012.00
2019-04-30T06:37:02.290Z,4364.00
2019-04-30T06:38:02.276Z,4044.00
2019-04-30T06:39:02.180Z,4232.00
2019-04-30T06:40:02.125Z,4020.00
2019-04-30T06:41:02.070Z,3860.00
2019-04-30T06:42:06.492Z,4920.00
2019-04-30T06:43:01.997Z,4796.00
2019-04-30T06:44:01.908Z,5504.00
2019-04-30T06:45:01.862Z,5368.00
2019-04-30T06:46:01.803Z,4584.00
2019-04-30T06:47:01.754Z,4636.00
2019-04-30T06:48:01.719Z,5000.00
2019-04-30T06:49:01.643Z,5392.00
2019-04-30T06:50:01.598Z,5504.00
2019-04-30T06:51:01.570Z,5476.00
2019-04-30T06:52:01.485Z,4852.00
2019-04-30T06:53:01.776Z,5144.00
2019-04-30T06:54:01.370Z,4892.00
2019-04-30T06:55:01.318Z,5068.00
2019-04-30T06:56:01.294Z,4876.00
2019-04-30T06:57:01.216Z,5368.00
2019-04-30T06:58:11.993Z,5224.00
2019-04-30T06:59:01.132Z,5004.00
2019-04-30T07:00:01.072Z,5160.00
2019-04-30T07:01:00.993Z,5216.00
2019-04-30T07:02:00.941Z,4984.00
2019-04-30T07:03:00.923Z,4976.00
2019-04-30T07:04:01.098Z,5180.00
2019-04-30T07:05:00.813Z,5632.00
2019-04-30T07:06:00.959Z,5036.00
2019-04-30T07:07:00.673Z,5088.00
2019-04-30T07:08:07.145Z,5136.00
2019-04-30T07:09:00.567Z,5124.00
2019-04-30T07:10:01.250Z,5012.00
2019-04-30T07:11:07.399Z,5032.00
2019-04-30T07:12:00.439Z,5248.00
2019-04-30T07:13:00.349Z,5268.00
2019-04-30T07:14:00.300Z,5340.00
2019-04-30T07:15:00.278Z,5304.00
2019-04-30T07:16:00.188Z,5328.00
2019-04-30T07:17:00.156Z,5384.00
2019-04-30T07:18:00.125Z,5352.00
2019-04-30T07:19:00.027Z,5688.00
2019-04-30T07:19:59.974Z,5496.00
2019-04-30T07:20:59.927Z,5328.00
2019-04-30T07:21:59.867Z,4828.00
2019-04-30T07:23:03.066Z,4968.00
2019-04-30T07:23:59.792Z,5560.00
2019-04-30T07:24:59.763Z,6068.00
2019-04-30T07:25:59.653Z,6188.00
2019-04-30T07:27:02.660Z,5932.00
2019-04-30T07:27:59.948Z,5892.00
2019-04-30T07:29:02.442Z,5844.00
2019-04-30T07:29:59.639Z,5708.00
2019-04-30T07:31:10.228Z,5568.00
2019-04-30T07:31:59.334Z,5792.00
2019-04-30T07:32:59.675Z,5976.00
2019-04-30T07:33:59.586Z,5856.00
2019-04-30T07:34:59.515Z,5840.00
2019-04-30T07:36:01.562Z,6044.00
2019-04-30T07:37:13.418Z,5964.00
2019-04-30T07:38:00.602Z,5692.00
2019-04-30T07:38:59.886Z,5368.00
2019-04-30T07:39:59.092Z,5344.00
2019-04-30T07:40:59.213Z,5536.00
2019-04-30T07:41:59.915Z,5700.00
2019-04-30T07:42:59.181Z,5572.00
2019-04-30T07:43:59.337Z,5328.00
2019-04-30T07:45:00.669Z,5340.00
2019-04-30T07:45:59.798Z,5220.00
2019-04-30T07:46:59.348Z,5336.00
2019-04-30T07:47:59.424Z,5200.00
2019-04-30T07:48:59.996Z,5156.00
2019-04-30T07:50:00.685Z,5244.00
2019-04-30T07:50:59.189Z,5524.00
2019-04-30T07:52:00.793Z,5420.00
2019-04-30T07:53:05.230Z,5620.00
2019-04-30T07:53:59.043Z,5560.00
2019-04-30T07:55:00.659Z,5224.00
2019-04-30T07:55:58.853Z,5108.00
2019-04-30T07:57:00.355Z,5156.00
2019-04-30T07:57:59.188Z,5168.00
2019-04-30T07:59:00.700Z,5264.00
2019-04-30T07:59:59.687Z,5156.00
2019-04-30T08:00:59.329Z,5104.00
2019-04-30T08:02:07.563Z,5216.00
2019-04-30T08:02:59.956Z,5276.00
2019-04-30T08:03:58.996Z,5284.00
2019-04-30T08:04:59.757Z,5288.00
2019-04-30T08:05:59.559Z,5312.00
2019-04-30T08:06:59.557Z,5300.00
2019-04-30T08:08:15.860Z,5480.00
2019-04-30T08:09:00.401Z,5564.00
2019-04-30T08:09:59.007Z,5660.00
2019-04-30T08:10:58.872Z,5580.00
2019-04-30T08:11:58.930Z,5532.00
2019-04-30T08:13:08.388Z,5556.00
2019-04-30T08:13:59.012Z,5552.00
2019-04-30T08:14:59.322Z,5528.00
2019-04-30T08:15:57.010Z,5564.00
2019-04-30T08:16:58.934Z,5612.00
2019-04-30T08:18:03.594Z,5564.00
2019-04-30T08:18:56.855Z,5528.00
2019-04-30T08:19:58.768Z,5616.00
2019-04-30T08:20:59.032Z,5540.00
2019-04-30T08:21:58.532Z,5488.00
2019-04-30T08:22:56.655Z,5444.00
2019-04-30T08:23:56.602Z,5396.00
2019-04-30T08:24:58.569Z,5480.00
2019-04-30T08:25:56.500Z,5504.00
2019-04-30T08:26:56.487Z,5512.00
2019-04-30T08:27:56.398Z,5496.00
2019-04-30T08:28:56.347Z,5504.00
2019-04-30T08:29:56.300Z,5536.00
2019-04-30T08:30:56.259Z,5484.00
2019-04-30T08:31:56.228Z,5496.00
2019-04-30T08:32:56.155Z,5512.00
2019-04-30T08:33:56.096Z,5512.00
2019-04-30T08:34:56.047Z,5468.00
2019-04-30T08:35:56.031Z,5504.00
2019-04-30T08:36:56.335Z,5516.00
2019-04-30T08:37:55.897Z,5504.00
2019-04-30T08:38:55.846Z,5524.00
2019-04-30T08:39:55.797Z,5544.00
2019-04-30T08:40:58.265Z,5520.00
2019-04-30T08:41:55.706Z,5556.00
2019-04-30T08:42:55.649Z,5604.00
2019-04-30T08:43:55.600Z,5576.00
2019-04-30T08:44:55.552Z,5536.00
2019-04-30T08:45:55.534Z,5532.00
2019-04-30T08:46:55.454Z,5560.00
2019-04-30T08:47:55.404Z,5528.00
2019-04-30T08:48:55.363Z,5520.00
2019-04-30T08:49:55.380Z,5484.00
2019-04-30T08:50:55.307Z,5472.00
2019-04-30T08:51:55.208Z,5436.00
2019-04-30T08:52:55.166Z,5416.00
2019-04-30T08:53:55.113Z,5360.00
2019-04-30T08:54:55.066Z,5336.00
2019-04-30T08:55:55.051Z,5308.00
2019-04-30T08:56:54.968Z,5264.00
2019-04-30T08:58:07.547Z,5228.00
2019-04-30T08:58:55.008Z,5204.00
2019-04-30T08:59:54.826Z,5216.00
2019-04-30T09:00:54.772Z,5224.00
2019-04-30T09:01:54.724Z,5200.00
2019-04-30T09:02:54.679Z,5144.00
2019-04-30T09:03:54.676Z,5116.00
2019-04-30T09:04:54.581Z,5092.00
2019-04-30T09:05:54.539Z,5060.00
2019-04-30T09:06:54.487Z,5056.00
2019-04-30T09:07:54.440Z,5060.00
2019-04-30T09:08:54.422Z,5044.00
2019-04-30T09:09:54.344Z,5060.00
2019-04-30T09:10:54.297Z,5036.00
2019-04-30T09:11:55.756Z,5056.00
2019-04-30T09:12:54.202Z,5040.00
2019-04-30T09:13:54.188Z,5024.00
2019-04-30T09:14:54.112Z,4996.00
2019-04-30T09:15:54.060Z,4984.00
2019-04-30T09:16:54.014Z,4976.00
2019-04-30T09:18:03.147Z,4964.00
2019-04-30T09:18:53.952Z,4944.00
2019-04-30T09:19:53.873Z,4948.00
2019-04-30T09:20:53.827Z,4908.00
2019-04-30T09:21:53.814Z,4884.00
2019-04-30T09:22:53.732Z,4868.00
2019-04-30T09:23:53.688Z,4840.00
2019-04-30T09:24:53.678Z,4780.00
2019-04-30T09:25:53.632Z,4852.00
2019-04-30T09:26:53.552Z,4828.00
2019-04-30T09:27:53.500Z,4824.00
2019-04-30T09:28:53.451Z,4820.00
2019-04-30T09:29:53.407Z,4792.00
2019-04-30T09:30:53.392Z,4788.00
2019-04-30T09:31:53.314Z,4768.00
2019-04-30T09:32:53.271Z,4768.00
2019-04-30T09:33:53.223Z,4744.00
2019-04-30T09:34:53.213Z,4748.00
2019-04-30T09:35:53.128Z,4728.00
2019-04-30T09:36:53.083Z,4728.00
2019-04-30T09:37:59.075Z,4744.00
2019-04-30T09:38:53.016Z,4736.00
2019-04-30T09:39:52.958Z,4724.00
2019-04-30T09:40:52.899Z,4740.00
2019-04-30T09:41:52.855Z,4732.00
2019-04-30T09:42:52.844Z,4736.00
2019-04-30T09:43:52.766Z,4720.00
2019-04-30T09:44:54.846Z,4704.00
2019-04-30T09:45:52.670Z,4696.00
2019-04-30T09:46:52.628Z,4680.00
2019-04-30T09:47:52.623Z,4664.00
2019-04-30T09:48:52.543Z,4684.00
2019-04-30T09:49:52.490Z,4688.00
2019-04-30T09:50:52.776Z,4700.00
2019-04-30T09:51:52.611Z,4692.00
2019-04-30T09:52:52.479Z,4692.00
2019-04-30T09:53:58.678Z,4700.00
2019-04-30T09:54:52.612Z,4692.00
2019-04-30T09:55:52.219Z,4684.00
2019-04-30T09:56:52.757Z,4696.00
2019-04-30T09:57:52.167Z,4708.00
2019-04-30T09:58:52.084Z,4696.00
2019-04-30T09:59:52.040Z,4688.00
2019-04-30T10:00:51.996Z,4688.00
2019-04-30T10:01:51.952Z,4676.00
2019-04-30T10:02:51.938Z,4688.00
2019-04-30T10:03:52.248Z,4688.00
2019-04-30T10:04:52.268Z,4696.00
2019-04-30T10:05:51.801Z,4684.00
2019-04-30T10:06:51.725Z,4688.00
2019-04-30T10:07:51.678Z,4676.00
2019-04-30T10:08:51.634Z,4692.00
2019-04-30T10:09:51.589Z,4696.00
2019-04-30T10:10:51.585Z,4708.00
2019-04-30T10:11:51.507Z,4712.00
2019-04-30T10:12:51.457Z,4724.00
2019-04-30T10:13:51.411Z,4720.00
2019-04-30T10:14:51.428Z,4704.00
2019-04-30T10:15:51.357Z,4672.00
2019-04-30T10:16:51.277Z,4712.00
2019-04-30T10:17:51.237Z,4732.00
2019-04-30T10:18:51.190Z,4728.00
2019-04-30T10:19:51.145Z,4716.00
2019-04-30T10:20:51.132Z,4720.00
2019-04-30T10:21:51.063Z,4732.00
2019-04-30T10:22:51.049Z,4728.00
2019-04-30T10:23:50.968Z,4736.00
2019-04-30T10:24:50.924Z,4724.00
2019-04-30T10:25:50.886Z,4716.00
2019-04-30T10:26:50.843Z,4728.00
2019-04-30T10:27:50.837Z,4728.00
2019-04-30T10:28:50.752Z,4736.00
2019-04-30T10:29:50.708Z,4732.00
2019-04-30T10:30:50.694Z,4728.00
2019-04-30T10:31:50.619Z,4728.00
2019-04-30T10:32:50.621Z,4724.00
2019-04-30T10:33:50.531Z,4716.00
2019-04-30T10:34:50.486Z,4712.00
2019-04-30T10:35:50.442Z,4716.00
2019-04-30T10:36:50.399Z,4712.00
2019-04-30T10:37:50.406Z,4712.00
2019-04-30T10:38:50.314Z,4716.00
2019-04-30T10:39:50.274Z,4712.00
2019-04-30T10:40:50.236Z,4692.00
2019-04-30T10:41:50.181Z,4696.00
2019-04-30T10:42:50.186Z,4692.00
2019-04-30T10:43:50.094Z,4688.00
2019-04-30T10:44:50.050Z,4680.00
2019-04-30T10:45:50.007Z,4680.00
2019-04-30T10:46:49.968Z,4672.00
2019-04-30T10:47:49.949Z,4668.00
2019-04-30T10:48:49.894Z,4664.00
2019-04-30T10:49:49.835Z,4668.00
2019-04-30T10:50:49.794Z,4664.00
2019-04-30T10:51:49.777Z,4648.00
2019-04-30T10:52:49.746Z,4648.00
2019-04-30T10:53:50.913Z,4648.00
2019-04-30T10:54:49.782Z,4636.00
2019-04-30T10:55:49.575Z,4632.00
2019-04-30T10:56:51.324Z,4640.00
2019-04-30T10:57:49.623Z,4632.00
2019-04-30T10:58:49.470Z,4616.00
2019-04-30T10:59:49.406Z,4608.00
2019-04-30T11:00:49.896Z,4608.00
2019-04-30T11:01:49.390Z,4592.00
2019-04-30T11:02:49.721Z,4588.00
2019-04-30T11:03:49.232Z,4580.00
2019-04-30T11:04:49.189Z,4564.00
2019-04-30T11:05:49.146Z,4556.00
2019-04-30T11:06:49.103Z,4556.00
2019-04-30T11:07:49.569Z,4548.00
2019-04-30T11:08:49.049Z,4568.00
2019-04-30T11:09:49.397Z,4552.00
2019-04-30T11:10:48.940Z,4532.00
2019-04-30T11:11:49.718Z,4528.00
2019-04-30T11:12:48.851Z,4512.00
2019-04-30T11:13:48.804Z,4508.00
2019-04-30T11:14:48.790Z,4512.00
2019-04-30T11:15:49.248Z,4488.00
2019-04-30T11:16:51.220Z,4488.00
2019-04-30T11:17:49.616Z,4480.00
2019-04-30T11:18:48.790Z,4480.00
2019-04-30T11:19:49.281Z,4468.00
2019-04-30T11:20:49.808Z,4456.00
2019-04-30T11:21:48.643Z,4448.00
2019-04-30T11:22:48.519Z,4440.00
2019-04-30T11:23:49.466Z,4428.00
2019-04-30T11:24:59.026Z,4432.00
2019-04-30T11:25:50.768Z,4428.00
2019-04-30T11:26:50.090Z,4424.00
2019-04-30T11:27:50.670Z,4428.00
2019-04-30T11:28:48.394Z,4412.00
2019-04-30T11:29:49.460Z,4416.00
2019-04-30T11:30:48.318Z,4412.00
2019-04-30T11:31:48.273Z,4408.00
2019-04-30T11:32:48.178Z,4412.00
2019-04-30T11:33:48.266Z,4408.00
2019-04-30T11:34:47.937Z,4392.00
2019-04-30T11:35:52.828Z,4380.00
2019-04-30T11:36:47.826Z,4380.00
2019-04-30T11:37:47.817Z,4368.00
2019-04-30T11:38:48.742Z,4364.00
2019-04-30T11:39:47.733Z,4368.00
2019-04-30T11:40:48.589Z,4364.00
2019-04-30T11:41:47.614Z,4348.00
2019-04-30T11:42:47.572Z,4332.00
2019-04-30T11:43:49.536Z,4352.00
2019-04-30T11:44:48.752Z,4336.00
2019-04-30T11:45:47.445Z,4328.00
2019-04-30T11:46:49.452Z,4332.00
2019-04-30T11:47:53.323Z,4324.00
2019-04-30T11:48:48.986Z,4312.00
2019-04-30T11:49:47.277Z,4308.00
2019-04-30T11:50:49.133Z,4292.00
2019-04-30T11:51:47.191Z,4284.00
2019-04-30T11:52:47.176Z,4276.00
2019-04-30T11:53:48.938Z,4284.00
2019-04-30T11:54:51.638Z,4256.00
2019-04-30T11:55:49.043Z,4256.00
2019-04-30T11:56:50.306Z,4244.00
2019-04-30T11:57:46.939Z,4232.00
2019-04-30T11:58:48.806Z,4232.00
2019-04-30T11:59:46.860Z,4240.00
2019-04-30T12:00:46.850Z,4240.00
2019-04-30T12:01:46.776Z,4248.00
2019-04-30T12:02:46.731Z,4240.00
2019-04-30T12:03:46.718Z,4232.00
2019-04-30T12:04:46.644Z,4236.00
2019-04-30T12:05:46.629Z,4228.00
2019-04-30T12:06:46.559Z,4220.00
2019-04-30T12:07:48.325Z,4204.00
2019-04-30T12:08:46.474Z,4192.00
2019-04-30T12:09:48.388Z,4188.00
2019-04-30T12:10:46.427Z,4168.00
2019-04-30T12:11:46.349Z,4144.00
2019-04-30T12:12:46.343Z,4140.00
2019-04-30T12:13:46.267Z,4136.00
2019-04-30T12:14:46.226Z,4132.00
2019-04-30T12:15:46.181Z,4136.00
2019-04-30T12:16:46.142Z,4120.00
2019-04-30T12:17:46.137Z,4116.00
2019-04-30T12:18:46.090Z,4112.00
2019-04-30T12:19:46.016Z,4104.00
2019-04-30T12:20:45.972Z,4100.00
2019-04-30T12:21:45.931Z,4104.00
2019-04-30T12:22:45.896Z,4100.00
2019-04-30T12:23:45.879Z,4088.00
2019-04-30T12:24:45.807Z,4068.00
2019-04-30T12:25:45.797Z,4064.00
2019-04-30T12:26:45.755Z,4060.00
2019-04-30T12:27:45.681Z,4048.00
2019-04-30T12:28:45.635Z,4048.00